Alba, Pennsylvania
Current Conditions -  °F | °C
As of 8:35 PM on Wednesday 26 Nov 2014 (Local Time) from KN38 Reporting Station
Haze Haze  
Wind Chill: -8°   Ceiling: NA
Heat Index: -2°   Visibility: 6mi
Dew Point: -3°   Wind: 14mph
Humidity: 93%   Direction: 10°N
Pressure: 29.93"   Gusts: NA
Location:  41.71°N, 76.83°W
Report Text: KN38 270135Z AUTO 01012KT 6SM BR M02/M03 A2993 RMK AO2 PWINO
Loading
Personal Weather Stations






























Interactive Weather Map New forecast layout! Learn more

10-Day Weather Forecast

Advertisements
Track Severe Weather on mobile